ADDS METAR Data INFO
IDs: Format: Raw Decoded Include TAF

Data at: 1551 UTC 12 Dec 2017

KVLD 121453Z 27007KT 220V300 10SM CLR 14/07 A2995 RMK AO2 SLP149 T01440072 56005
KVLD 121353Z VRB04KT 10SM CLR 12/09 A2995 RMK AO2 SLP150 T01220089
KVLD 121253Z 23003KT 10SM CLR 08/07 A2996 RMK AO2 SLP154 T00830072
KVLD 121153Z 20005KT 10SM CLR 08/07 A2996 RMK AO2 SLP155 T00830072 10083 20044 56013
KVLD 121053Z AUTO 21004KT 10SM CLR 05/05 A2997 RMK AO2 SLP156 T00500050
KVLD 120953Z AUTO 23003KT 10SM CLR 06/06 A2999 RMK AO2 SLP163 T00610056
KVLD 120904Z AUTO 00000KT 5SM BR CLR 04/04 A3000 RMK AO2 T00440044
KVLD 120853Z AUTO 00000KT 2 1/2SM BR CLR 05/04 A3000 RMK AO2 VIS 1 1/4V5 SLP167 T00500039 58020
KVLD 120753Z AUTO 21003KT 10SM CLR 06/06 A3002 RMK AO2 SLP175 T00610061
KVLD 120653Z AUTO 22005KT 10SM CLR 08/07 A3004 RMK AO2 SLP180 T00780067
KVLD 120553Z AUTO 21004KT 10SM CLR 08/06 A3006 RMK AO2 SLP188 T00780061 10111 20044 58017
KVLD 120453Z AUTO 21004KT 10SM CLR 04/04 A3008 RMK AO2 SLP196 T00440039 401721033
KVLD 120353Z AUTO 21003KT 10SM CLR 06/03 A3010 RMK AO2 SLP202 T00560033
KVLD 120253Z 20004KT 10SM CLR 08/03 A3011 RMK AO2 SLP206 T00780033 58006
KVLD 120153Z 20004KT 10SM CLR 08/03 A3012 RMK AO2 SLP208 T00830028
KVLD 120053Z 20004KT 10SM CLR 09/03 A3013 RMK AO2 SLP212 T00940028
KVLD 112353Z 21005KT 10SM CLR 11/03 A3013 RMK AO2 SLP213 T01110033 10172 20061 53001
KVLD 112253Z 20003KT 10SM CLR 09/03 A3013 RMK AO2 SLP211 T00890033
KVLD 112153Z VRB04KT 10SM CLR 15/01 A3013 RMK AO2 SLP210 T01500011
KVLD 112053Z VRB06KT 10SM CLR 17/01 A3013 RMK AO2 SLP211 T01670011 56020
KVLD 111953Z 00000KT 10SM CLR 17/02 A3013 RMK AO2 SLP212 T01720017
KVLD 111853Z VRB03KT 10SM CLR 16/02 A3015 RMK AO2 SLP219 T01610017
KVLD 111753Z VRB03KT 10SM CLR 16/02 A3019 RMK AO2 SLP232 T01560017 10161 21033 58033
KVLD 111653Z VRB03KT 10SM CLR 14/02 A3024 RMK AO2 SLP248 T01440022
KVLD 111553Z VRB05KT 10SM CLR 12/02 A3027 RMK AO2 SLP259 T01220017
KVLD 111453Z 00000KT 10SM CLR 08/02 A3029 RMK AO2 SLP267 T00830017 50000
KVLD 111353Z 00000KT 10SM CLR 04/01 A3030 RMK AO2 SLP269 T00390011
KVLD 111253Z 00000KT 10SM CLR M02/M02 A3029 RMK AO2 SLP267 T10171022
KVLD 111153Z 00000KT 8SM CLR M03/M04 A3029 RMK AO2 SLP266 T10281039 11011 21028 55001
KVLD 111053Z AUTO 00000KT 9SM CLR M03/M04 A3028 RMK AO2 SLP264 T10281039 $
KVLD 110953Z AUTO 00000KT 7SM CLR M02/M03 A3028 RMK AO2 SLP263 T10221033 $
KVLD 110853Z AUTO 00000KT 10SM CLR M02/M03 A3029 RMK AO2 SLP266 T10221028 56009 $
KVLD 110753Z AUTO 00000KT 10SM CLR M02/M03 A3029 RMK AO2 SLP267 T10171028 $
KVLD 110653Z AUTO 00000KT 10SM CLR M01/M02 A3029 RMK AO2 SLP267 T10111022 $
KVLD 110553Z AUTO 00000KT 10SM CLR M01/M02 A3032 RMK AO2 SLP275 T10111022 10022 21011 53005 $
KVLD 110453Z AUTO 00000KT 10SM CLR 00/M02 A3031 RMK AO2 SLP274 T00001017 401111033 $
KVLD 110353Z 00000KT 10SM CLR 00/M01 A3030 RMK AO2 SLP271 T00001011 $